LIPH/TSF METAR and TAF weather

Enter ICAO airport designator
Station Type Date Time Source
LIPH METAR 2019/10/23 02:20 UTC NOAA

LIPH 230220Z AUTO 23001KT 0600 R07/1300D BCFG NCD 13/13 Q1020


Station Type Date Time Source
LIPH Decoded METAR 2019/10/23 02:20 UTC NOAA

Treviso / S. Angelo, Italy (LIPH) 45-39N 012-11E 23M
Oct 22, 2019 - 10:20 PM EDT / 2019.10.23 0220 UTC
Wind: from the SW (230 degrees) at 1 MPH (1 KT):0
Visibility: less than 1 mile:0
Weather: patches of fog
Temperature: 55 F (13 C)
Dew Point: 55 F (13 C)
Relative Humidity: 100%
Pressure (altimeter): 30.12 in. Hg (1020 hPa)
ob: LIPH 230220Z AUTO 23001KT 0600 R07/1300D BCFG NCD 13/13 Q1020
cycle: 2

Station Type Date Time Source
LIPH TAF 2019/10/22 18:21 UTC NOAA

TAF LIPH 221700Z 2218/2318 VRB05KT 6000 NSC
BECMG 2218/2220 3000 BR
BECMG 2222/2224 0200 FG OVC001
BECMG 2309/2312 7000

Example: see airport list